createdAt,value
2023-12-27T00:01:02.509Z,2.57
2023-12-27T00:03:29.781Z,2.59
2023-12-27T00:05:57.453Z,2.85
2023-12-27T00:08:24.722Z,2.83
2023-12-27T00:10:51.800Z,3.03
2023-12-27T00:13:20.208Z,2.66
2023-12-27T00:15:47.420Z,2.59
2023-12-27T00:18:19.125Z,2.51
2023-12-27T00:20:48.760Z,2.49
2023-12-27T00:23:16.016Z,2.56
2023-12-27T00:25:43.169Z,2.50
2023-12-27T00:28:10.309Z,2.59
2023-12-27T00:30:38.757Z,2.53
2023-12-27T00:33:06.097Z,2.38
2023-12-27T00:35:33.216Z,2.51
2023-12-27T00:38:00.519Z,2.45
2023-12-27T00:40:27.692Z,2.34
2023-12-27T00:42:54.809Z,2.37
2023-12-27T00:45:22.076Z,2.15
2023-12-27T00:47:50.931Z,2.07
2023-12-27T00:50:17.997Z,1.90
2023-12-27T00:52:45.420Z,1.83
2023-12-27T00:55:12.794Z,1.91
2023-12-27T00:57:40.110Z,1.90
2023-12-27T01:00:09.822Z,1.87
2023-12-27T01:02:38.360Z,1.86
2023-12-27T01:05:08.391Z,2.04
2023-12-27T01:07:35.871Z,1.94
2023-12-27T01:10:04.262Z,1.82
2023-12-27T01:12:31.426Z,1.63
2023-12-27T01:14:58.633Z,1.56
2023-12-27T01:17:26.358Z,1.53
2023-12-27T01:19:53.615Z,1.48
2023-12-27T01:22:22.198Z,1.49
2023-12-27T01:24:49.248Z,1.52
2023-12-27T01:27:16.406Z,1.49
2023-12-27T01:29:43.468Z,1.64
2023-12-27T01:32:10.555Z,1.97
2023-12-27T01:34:39.467Z,2.33
2023-12-27T01:37:06.917Z,2.33
2023-12-27T01:39:35.765Z,2.39
2023-12-27T01:42:03.790Z,2.43
2023-12-27T01:44:30.878Z,2.50
2023-12-27T01:46:58.666Z,2.90
2023-12-27T01:49:26.253Z,2.85
2023-12-27T01:51:53.329Z,2.96
2023-12-27T01:54:20.583Z,3.12
2023-12-27T01:56:51.280Z,3.05
2023-12-27T01:59:18.373Z,2.60
2023-12-27T02:01:46.207Z,2.11
2023-12-27T02:04:13.614Z,2.28
2023-12-27T02:06:41.430Z,2.52
2023-12-27T02:09:08.879Z,2.40
2023-12-27T02:11:37.063Z,2.26
2023-12-27T02:14:08.364Z,1.91
2023-12-27T02:16:35.591Z,1.87
2023-12-27T02:19:06.617Z,1.84
2023-12-27T02:21:34.654Z,1.81
2023-12-27T02:24:04.788Z,1.58
2023-12-27T02:26:33.718Z,1.70
2023-12-27T02:29:01.238Z,1.70
2023-12-27T02:31:28.710Z,1.81
2023-12-27T02:33:56.128Z,2.20
2023-12-27T02:36:23.309Z,2.33
2023-12-27T02:38:50.338Z,2.06
2023-12-27T02:41:17.627Z,2.07
2023-12-27T02:43:46.030Z,1.93
2023-12-27T02:46:13.483Z,1.80
2023-12-27T02:48:40.732Z,1.69
2023-12-27T02:51:08.844Z,1.66
2023-12-27T02:53:36.025Z,1.61
2023-12-27T02:56:03.623Z,1.85
2023-12-27T02:58:31.011Z,2.08
2023-12-27T03:00:59.508Z,2.39
2023-12-27T03:03:26.788Z,2.51
2023-12-27T03:05:53.828Z,2.54
2023-12-27T03:08:20.829Z,2.43
2023-12-27T03:10:47.900Z,2.84
2023-12-27T03:13:14.953Z,2.90
2023-12-27T03:15:42.189Z,3.06
2023-12-27T03:18:10.776Z,2.85
2023-12-27T03:20:37.923Z,2.88
2023-12-27T03:23:05.103Z,2.94
2023-12-27T03:25:32.342Z,2.83
2023-12-27T03:27:59.989Z,3.00
2023-12-27T03:30:27.259Z,3.15
2023-12-27T03:32:54.499Z,3.29
2023-12-27T03:35:23.022Z,3.13
2023-12-27T03:37:50.340Z,3.31
2023-12-27T03:40:17.929Z,3.42
2023-12-27T03:42:45.016Z,3.50
2023-12-27T03:45:12.235Z,3.40
2023-12-27T03:47:39.451Z,3.45
2023-12-27T03:50:07.665Z,3.49
2023-12-27T03:52:36.253Z,3.33
2023-12-27T03:55:03.635Z,3.25
2023-12-27T03:57:31.028Z,3.32
2023-12-27T03:59:58.267Z,3.42
2023-12-27T04:02:25.442Z,3.40
2023-12-27T04:04:52.839Z,3.34
2023-12-27T04:07:20.204Z,3.39
2023-12-27T04:09:48.540Z,3.38
2023-12-27T04:12:15.780Z,3.32
2023-12-27T04:14:43.627Z,3.27
2023-12-27T04:17:11.183Z,3.33
2023-12-27T04:19:38.405Z,3.33
2023-12-27T04:22:06.505Z,3.28
2023-12-27T04:24:33.879Z,3.25
2023-12-27T04:27:02.775Z,3.13
2023-12-27T04:29:29.896Z,3.19
2023-12-27T04:31:57.294Z,3.02
2023-12-27T04:34:24.514Z,3.14
2023-12-27T04:36:51.725Z,3.13
2023-12-27T04:39:19.008Z,3.07
2023-12-27T04:41:46.107Z,3.12
2023-12-27T04:44:14.570Z,3.04
2023-12-27T04:46:41.765Z,2.88
2023-12-27T04:49:10.880Z,3.01
2023-12-27T04:51:38.246Z,2.85
2023-12-27T04:54:05.627Z,3.01
2023-12-27T04:56:33.129Z,2.97
2023-12-27T04:59:00.805Z,2.78
2023-12-27T05:01:29.290Z,2.67
2023-12-27T05:03:56.441Z,2.55
2023-12-27T05:06:23.586Z,2.62
2023-12-27T05:08:50.702Z,2.52
2023-12-27T05:11:20.348Z,2.50
2023-12-27T05:13:47.835Z,2.41
2023-12-27T05:16:17.369Z,2.44
2023-12-27T05:18:46.622Z,2.38
2023-12-27T05:21:15.888Z,2.29
2023-12-27T05:23:43.382Z,2.16
2023-12-27T05:26:11.229Z,2.09
2023-12-27T05:28:38.385Z,2.17
2023-12-27T05:31:05.763Z,2.07
2023-12-27T05:33:33.403Z,2.07
2023-12-27T05:36:01.983Z,1.98
2023-12-27T05:38:29.192Z,1.92
2023-12-27T05:40:56.366Z,1.85
2023-12-27T05:43:23.644Z,1.78
2023-12-27T05:45:50.927Z,1.76
2023-12-27T05:48:18.291Z,1.78
2023-12-27T05:50:45.537Z,1.85
2023-12-27T06:09:33.120Z,2.21
2023-12-27T06:12:00.486Z,2.20
2023-12-27T06:14:29.175Z,2.26
2023-12-27T06:16:56.308Z,2.21
2023-12-27T06:19:23.814Z,2.32
2023-12-27T06:21:50.979Z,2.16
2023-12-27T06:24:18.056Z,2.13
2023-12-27T06:26:46.469Z,2.15
2023-12-27T06:29:13.631Z,2.39
2023-12-27T06:31:40.915Z,2.31
2023-12-27T06:34:08.336Z,2.13
2023-12-27T06:36:35.683Z,2.17
2023-12-27T06:39:02.940Z,2.07
2023-12-27T06:41:30.301Z,2.11
2023-12-27T06:43:58.759Z,2.25
2023-12-27T06:46:25.833Z,2.13
2023-12-27T06:48:52.939Z,2.09
2023-12-27T06:51:20.084Z,2.05
2023-12-27T06:53:47.289Z,2.10
2023-12-27T06:56:16.076Z,2.23
2023-12-27T06:58:43.164Z,1.92
2023-12-27T07:01:13.030Z,1.95
2023-12-27T07:03:40.333Z,1.85
2023-12-27T07:06:08.145Z,1.88
2023-12-27T07:08:35.790Z,1.94
2023-12-27T07:11:02.879Z,2.03
2023-12-27T07:13:29.995Z,2.20
2023-12-27T07:15:57.586Z,2.02
2023-12-27T07:18:26.184Z,2.00
2023-12-27T07:20:53.367Z,2.04
2023-12-27T07:23:20.803Z,2.08
2023-12-27T07:25:50.170Z,2.15
2023-12-27T07:28:17.346Z,2.28
2023-12-27T07:30:44.572Z,2.22
2023-12-27T07:33:17.268Z,2.29
2023-12-27T07:35:48.100Z,2.23
2023-12-27T07:38:15.593Z,2.35
2023-12-27T07:40:44.224Z,2.28
2023-12-27T07:43:12.156Z,2.34
2023-12-27T07:45:39.579Z,2.46
2023-12-27T07:48:07.517Z,2.42
2023-12-27T07:50:37.471Z,2.55
2023-12-27T07:53:07.087Z,2.65
2023-12-27T07:55:34.115Z,2.63
2023-12-27T07:58:01.611Z,2.69
2023-12-27T08:00:28.785Z,2.85
2023-12-27T08:02:56.355Z,2.84
2023-12-27T08:05:23.650Z,2.91
2023-12-27T08:07:50.931Z,2.82
2023-12-27T08:10:19.545Z,2.94
2023-12-27T08:12:47.541Z,2.94
2023-12-27T08:15:14.941Z,2.94
2023-12-27T08:17:42.052Z,3.19
2023-12-27T08:20:11.580Z,3.33
2023-12-27T08:22:38.772Z,3.47
2023-12-27T08:25:13.293Z,3.40
2023-12-27T08:27:42.104Z,3.25
2023-12-27T08:30:10.264Z,3.25
2023-12-27T08:32:38.514Z,3.29
2023-12-27T08:35:09.382Z,3.22
2023-12-27T08:37:36.569Z,3.14
2023-12-27T08:40:04.892Z,3.16
2023-12-27T08:42:32.155Z,3.26
2023-12-27T08:45:00.918Z,3.27
2023-12-27T08:47:32.278Z,3.18
2023-12-27T08:50:04.325Z,3.04
2023-12-27T08:52:32.957Z,2.87
2023-12-27T08:55:00.264Z,2.69
2023-12-27T08:57:30.486Z,2.75
2023-12-27T09:00:01.323Z,2.59
2023-12-27T09:02:29.070Z,2.77
2023-12-27T09:04:56.198Z,2.51
2023-12-27T09:07:23.244Z,2.60
2023-12-27T09:09:50.541Z,2.84
2023-12-27T09:12:17.642Z,2.81
2023-12-27T09:14:44.685Z,2.75
2023-12-27T09:17:14.892Z,2.74
2023-12-27T09:19:42.205Z,2.85
2023-12-27T09:22:10.194Z,3.00
2023-12-27T09:24:37.365Z,3.11
2023-12-27T09:27:05.772Z,3.18
2023-12-27T09:29:33.005Z,3.13
2023-12-27T09:32:00.358Z,3.22
2023-12-27T09:34:29.636Z,3.26
2023-12-27T09:36:56.906Z,3.44
2023-12-27T09:39:24.235Z,3.27
2023-12-27T09:41:51.424Z,3.15
2023-12-27T09:44:21.497Z,3.22
2023-12-27T09:46:48.943Z,3.30
2023-12-27T09:49:17.118Z,3.25
2023-12-27T09:51:48.281Z,3.27
2023-12-27T09:54:17.653Z,3.29
2023-12-27T09:56:46.302Z,3.23
2023-12-27T09:59:28.538Z,3.36
2023-12-27T10:02:03.246Z,3.38
2023-12-27T10:04:48.831Z,3.42
2023-12-27T10:07:20.067Z,3.62
2023-12-27T10:09:48.538Z,3.74
2023-12-27T10:12:16.605Z,3.94
2023-12-27T10:14:45.572Z,4.13
2023-12-27T10:17:12.829Z,4.15
2023-12-27T10:19:42.289Z,4.20
2023-12-27T10:22:11.587Z,4.24
2023-12-27T10:24:40.994Z,4.31
2023-12-27T10:27:11.816Z,4.41
2023-12-27T10:29:46.462Z,4.34
2023-12-27T10:32:17.734Z,4.29
2023-12-27T10:34:46.077Z,4.53
2023-12-27T10:37:14.312Z,4.74
2023-12-27T10:39:46.810Z,4.48
2023-12-27T10:42:17.348Z,4.45
2023-12-27T10:44:48.573Z,4.49
2023-12-27T10:47:24.063Z,4.27
2023-12-27T10:49:53.398Z,4.27
2023-12-27T10:52:22.166Z,4.19
2023-12-27T10:54:57.632Z,4.29
2023-12-27T10:57:29.911Z,4.39
2023-12-27T11:00:01.165Z,4.45
2023-12-27T11:02:30.721Z,4.37
2023-12-27T11:04:59.354Z,4.59
2023-12-27T11:07:29.996Z,4.61
2023-12-27T11:10:02.318Z,4.59
2023-12-27T11:12:31.122Z,4.59
2023-12-27T11:15:04.955Z,4.51
2023-12-27T11:17:34.307Z,4.61
2023-12-27T11:20:03.165Z,4.62
2023-12-27T11:22:31.649Z,4.69
2023-12-27T11:25:01.157Z,4.54
2023-12-27T11:27:30.996Z,4.44
2023-12-27T11:29:58.711Z,4.69
2023-12-27T11:32:26.807Z,4.65
2023-12-27T11:34:54.957Z,4.63
2023-12-27T11:37:24.264Z,4.50
2023-12-27T11:39:53.867Z,4.49
2023-12-27T11:42:23.560Z,4.60
2023-12-27T11:44:55.249Z,4.70
2023-12-27T11:47:23.442Z,4.84
2023-12-27T11:50:18.170Z,4.73
2023-12-27T11:52:49.053Z,4.65
2023-12-27T11:55:20.452Z,4.77
2023-12-27T11:57:57.662Z,5.04
2023-12-27T12:00:27.005Z,4.99
2023-12-27T12:03:00.041Z,4.89
2023-12-27T12:05:57.620Z,4.78
2023-12-27T12:08:35.944Z,4.84
2023-12-27T12:11:11.484Z,4.89
2023-12-27T12:13:41.258Z,4.84
2023-12-27T12:16:09.152Z,4.94
2023-12-27T12:18:37.387Z,4.90
2023-12-27T12:21:05.362Z,5.00
2023-12-27T12:23:32.959Z,5.15
2023-12-27T12:26:02.021Z,4.95
2023-12-27T12:28:29.518Z,4.89
2023-12-27T12:30:59.335Z,4.89
2023-12-27T12:33:26.950Z,4.92
2023-12-27T12:35:56.330Z,5.01
2023-12-27T12:38:23.675Z,4.87
2023-12-27T12:40:51.544Z,4.74
2023-12-27T12:43:18.783Z,4.75
2023-12-27T12:45:47.579Z,5.02
2023-12-27T12:48:18.176Z,5.07
2023-12-27T12:50:45.358Z,5.01
2023-12-27T12:53:20.004Z,5.00
2023-12-27T12:55:47.437Z,5.15
2023-12-27T12:58:15.061Z,5.05
2023-12-27T13:00:42.452Z,4.83
2023-12-27T13:03:10.224Z,4.82
2023-12-27T13:05:42.557Z,4.78
2023-12-27T13:08:13.002Z,4.75
2023-12-27T13:10:40.045Z,4.76
2023-12-27T13:13:07.257Z,4.77
2023-12-27T13:15:34.556Z,4.83
2023-12-27T13:18:02.036Z,4.70
2023-12-27T13:20:29.493Z,4.66
2023-12-27T13:22:58.257Z,4.73
2023-12-27T13:25:25.871Z,4.66
2023-12-27T13:27:58.641Z,4.46
2023-12-27T13:30:33.200Z,4.54
2023-12-27T13:33:02.637Z,4.62
2023-12-27T13:35:31.026Z,4.74
2023-12-27T13:38:00.011Z,4.81
2023-12-27T13:40:27.764Z,4.62
2023-12-27T13:42:57.250Z,4.50
2023-12-27T13:45:26.172Z,4.46
2023-12-27T13:47:53.534Z,4.59
2023-12-27T13:50:20.918Z,4.38
2023-12-27T13:52:48.246Z,4.38
2023-12-27T13:55:22.181Z,4.46
2023-12-27T13:57:50.508Z,4.38
2023-12-27T14:00:19.275Z,4.31
2023-12-27T14:02:50.604Z,4.28
2023-12-27T14:05:21.310Z,4.14
2023-12-27T14:07:51.439Z,4.15
2023-12-27T14:10:20.545Z,4.25
2023-12-27T14:12:47.792Z,4.20
2023-12-27T14:15:15.290Z,4.23
2023-12-27T14:17:43.699Z,4.10
2023-12-27T14:20:14.175Z,4.12
2023-12-27T14:22:45.394Z,4.23
2023-12-27T14:25:15.009Z,4.23
2023-12-27T14:27:44.113Z,4.06
2023-12-27T14:30:12.701Z,4.10
2023-12-27T14:32:41.537Z,4.08
2023-12-27T14:35:09.820Z,3.94
2023-12-27T14:37:37.004Z,3.88
2023-12-27T14:40:07.919Z,4.00
2023-12-27T14:42:35.389Z,3.98
2023-12-27T14:45:04.954Z,3.95
2023-12-27T14:47:32.468Z,3.91
2023-12-27T14:49:59.678Z,4.00
2023-12-27T14:52:26.841Z,3.89
2023-12-27T14:54:55.275Z,3.85
2023-12-27T14:57:23.662Z,3.92
2023-12-27T14:59:52.895Z,3.83
2023-12-27T15:02:21.310Z,3.85
2023-12-27T15:04:48.816Z,3.77
2023-12-27T15:07:15.998Z,3.89
2023-12-27T15:09:43.110Z,3.76
2023-12-27T15:12:10.249Z,3.75
2023-12-27T15:14:38.178Z,3.78
2023-12-27T15:17:05.556Z,3.73
2023-12-27T15:19:34.286Z,3.75
2023-12-27T15:22:02.491Z,3.70
2023-12-27T15:24:29.704Z,3.70
2023-12-27T15:26:57.836Z,3.62
2023-12-27T15:29:25.027Z,3.74
2023-12-27T15:31:54.044Z,3.74
2023-12-27T15:34:23.428Z,3.74
2023-12-27T15:36:52.113Z,3.72
2023-12-27T15:39:20.564Z,3.65
2023-12-27T15:41:48.053Z,3.76
2023-12-27T15:44:15.268Z,3.78
2023-12-27T15:46:42.380Z,3.81
2023-12-27T15:49:09.946Z,3.73
2023-12-27T15:51:37.544Z,3.84
2023-12-27T15:54:08.667Z,3.79
2023-12-27T15:56:45.895Z,3.71
2023-12-27T15:59:14.546Z,3.79
2023-12-27T16:01:44.176Z,3.79
2023-12-27T16:04:14.863Z,3.85
2023-12-27T16:06:45.207Z,3.74
2023-12-27T16:09:14.760Z,3.90
2023-12-27T16:11:46.705Z,3.89
2023-12-27T16:14:14.068Z,3.86
2023-12-27T16:16:42.303Z,3.90
2023-12-27T16:19:10.086Z,3.92
2023-12-27T16:21:37.713Z,3.89
2023-12-27T16:24:07.391Z,3.86
2023-12-27T16:26:37.154Z,3.86
2023-12-27T16:29:04.308Z,3.95
2023-12-27T16:31:31.755Z,3.94
2023-12-27T16:33:59.050Z,3.95
2023-12-27T16:36:26.516Z,3.94
2023-12-27T16:38:55.293Z,3.97
2023-12-27T16:41:22.873Z,3.97
2023-12-27T16:43:51.441Z,3.97
2023-12-27T16:46:18.856Z,3.98
2023-12-27T16:48:48.909Z,4.00
2023-12-27T16:51:17.740Z,3.99
2023-12-27T16:53:44.881Z,4.00
2023-12-27T16:56:13.759Z,4.03
2023-12-27T16:58:40.912Z,4.07
2023-12-27T17:01:11.351Z,3.99
2023-12-27T17:03:38.645Z,4.05
2023-12-27T17:06:06.949Z,3.99
2023-12-27T17:08:34.104Z,4.00
2023-12-27T17:11:02.862Z,4.01
2023-12-27T17:13:30.097Z,3.98
2023-12-27T17:15:57.761Z,4.06
2023-12-27T17:18:26.423Z,3.97
2023-12-27T17:20:53.696Z,3.99
2023-12-27T17:23:20.747Z,4.03
2023-12-27T17:25:47.729Z,4.01
2023-12-27T17:28:14.827Z,4.00
2023-12-27T17:30:41.997Z,4.00
2023-12-27T17:33:09.243Z,4.04
2023-12-27T17:35:38.790Z,4.05
2023-12-27T17:38:05.814Z,4.06
2023-12-27T17:40:32.886Z,4.08
2023-12-27T17:43:00.262Z,4.04
2023-12-27T17:45:27.531Z,4.10
2023-12-27T17:47:54.654Z,4.05
2023-12-27T17:50:22.002Z,4.07
2023-12-27T17:52:50.420Z,3.96
2023-12-27T17:55:17.589Z,4.12
2023-12-27T17:57:44.851Z,4.06
2023-12-27T18:00:14.020Z,4.03
2023-12-27T18:02:41.182Z,4.07
2023-12-27T18:05:08.800Z,4.04
2023-12-27T18:07:36.434Z,4.04
2023-12-27T18:10:06.157Z,4.06
2023-12-27T18:12:33.627Z,4.09
2023-12-27T18:15:01.256Z,3.93
2023-12-27T18:17:29.496Z,4.04
2023-12-27T18:19:56.884Z,3.90
2023-12-27T18:22:24.146Z,4.01
2023-12-27T18:24:51.446Z,3.97
2023-12-27T18:27:20.470Z,3.96
2023-12-27T18:29:47.699Z,3.95
2023-12-27T18:32:14.903Z,4.02
2023-12-27T18:34:42.340Z,3.99
2023-12-27T18:37:10.098Z,3.90
2023-12-27T18:39:41.453Z,3.95
2023-12-27T18:42:08.853Z,3.88
2023-12-27T18:44:41.622Z,3.86
2023-12-27T18:47:09.270Z,3.87
2023-12-27T18:49:36.474Z,3.87
2023-12-27T18:52:04.458Z,3.83
2023-12-27T18:54:32.923Z,3.82
2023-12-27T18:56:59.973Z,3.84
2023-12-27T18:59:27.034Z,3.81
2023-12-27T19:01:55.505Z,3.84
2023-12-27T19:04:22.707Z,3.77
2023-12-27T19:06:49.837Z,3.80
2023-12-27T19:09:16.917Z,3.78
2023-12-27T19:11:44.107Z,3.81
2023-12-27T19:14:11.180Z,3.75
2023-12-27T19:16:38.945Z,3.76
2023-12-27T19:19:07.455Z,3.71
2023-12-27T19:21:37.512Z,3.61
2023-12-27T19:24:09.392Z,3.70
2023-12-27T19:26:36.490Z,3.70
2023-12-27T19:29:03.507Z,3.96
2023-12-27T19:31:30.809Z,4.15
2023-12-27T19:33:58.227Z,4.05
2023-12-27T19:36:26.745Z,3.93
2023-12-27T19:38:54.388Z,3.98
2023-12-27T19:41:21.564Z,4.04
2023-12-27T19:43:48.647Z,3.92
2023-12-27T19:46:15.645Z,3.85
2023-12-27T19:48:45.486Z,3.83
2023-12-27T19:51:13.682Z,3.77
2023-12-27T19:53:42.197Z,3.70
2023-12-27T19:56:09.463Z,3.64
2023-12-27T19:58:36.649Z,3.65
2023-12-27T20:01:04.202Z,3.66
2023-12-27T20:03:32.196Z,3.74
2023-12-27T20:05:59.573Z,3.70
2023-12-27T20:08:26.702Z,3.76
2023-12-27T20:10:55.161Z,3.75
2023-12-27T20:13:22.198Z,3.66
2023-12-27T20:15:49.836Z,3.75
2023-12-27T20:18:19.199Z,3.80
2023-12-27T20:20:46.577Z,3.71
2023-12-27T20:23:13.853Z,3.72
2023-12-27T20:25:42.384Z,3.78
2023-12-27T20:28:11.156Z,3.76
2023-12-27T20:30:38.592Z,3.69
2023-12-27T20:33:06.304Z,3.74
2023-12-27T20:35:37.620Z,3.69
2023-12-27T20:38:05.979Z,3.63
2023-12-27T20:40:33.585Z,3.63
2023-12-27T20:43:01.719Z,3.70
2023-12-27T20:45:30.207Z,3.71
2023-12-27T20:47:57.930Z,3.82
2023-12-27T20:50:26.687Z,3.80
2023-12-27T20:52:54.977Z,3.80
2023-12-27T20:55:22.240Z,3.74
2023-12-27T20:57:50.245Z,3.77
2023-12-27T21:00:18.306Z,3.71
2023-12-27T21:02:46.902Z,3.73
2023-12-27T21:05:15.734Z,3.82
2023-12-27T21:07:43.273Z,3.82
2023-12-27T21:10:10.882Z,3.84
2023-12-27T21:12:40.740Z,3.78
2023-12-27T21:15:09.885Z,3.73
2023-12-27T21:17:40.654Z,3.76
2023-12-27T21:20:12.064Z,4.00
2023-12-27T21:22:39.294Z,3.97
2023-12-27T21:25:07.747Z,3.93
2023-12-27T21:27:35.377Z,4.07
2023-12-27T21:30:02.701Z,4.23
2023-12-27T21:32:32.072Z,4.15
2023-12-27T21:34:59.220Z,4.07
2023-12-27T21:37:27.706Z,4.06
2023-12-27T21:39:54.944Z,4.08
2023-12-27T21:42:22.203Z,4.09
2023-12-27T21:44:49.587Z,3.89
2023-12-27T21:47:18.174Z,3.90
2023-12-27T21:49:46.158Z,3.87
2023-12-27T21:52:13.627Z,3.95
2023-12-27T21:54:42.262Z,3.84
2023-12-27T21:57:09.600Z,3.94
2023-12-27T21:59:36.596Z,4.05
2023-12-27T22:02:03.861Z,3.95
2023-12-27T22:04:30.936Z,3.83
2023-12-27T22:06:58.026Z,3.85
2023-12-27T22:09:25.157Z,3.78
2023-12-27T22:11:53.721Z,3.77
2023-12-27T22:14:20.768Z,3.69
2023-12-27T22:16:47.950Z,3.79
2023-12-27T22:19:16.134Z,3.75
2023-12-27T22:21:43.552Z,3.80
2023-12-27T22:24:10.864Z,3.79
2023-12-27T22:26:39.371Z,3.75
2023-12-27T22:29:07.898Z,3.72
2023-12-27T22:31:34.972Z,3.68
2023-12-27T22:34:02.364Z,3.75
2023-12-27T22:36:29.681Z,3.68
2023-12-27T22:38:58.147Z,3.75
2023-12-27T22:41:25.297Z,3.73
2023-12-27T22:43:52.576Z,3.71
2023-12-27T22:46:21.462Z,3.70
2023-12-27T22:48:48.726Z,3.72
2023-12-27T22:51:15.996Z,3.82
2023-12-27T22:53:43.104Z,3.82
2023-12-27T22:56:10.280Z,3.81
2023-12-27T22:58:37.559Z,3.79
2023-12-27T23:01:05.127Z,3.72
2023-12-27T23:03:33.804Z,3.72
2023-12-27T23:06:00.903Z,3.72
2023-12-27T23:08:28.069Z,3.70
2023-12-27T23:10:56.244Z,3.66
2023-12-27T23:13:23.214Z,3.72
2023-12-27T23:15:50.320Z,3.68
2023-12-27T23:18:17.618Z,3.77
2023-12-27T23:20:46.227Z,3.81
2023-12-27T23:23:13.647Z,3.83
2023-12-27T23:25:47.138Z,3.88
2023-12-27T23:28:15.603Z,4.00
2023-12-27T23:30:46.037Z,4.05
2023-12-27T23:33:13.454Z,4.09
2023-12-27T23:35:40.861Z,4.14
2023-12-27T23:38:09.284Z,4.17
2023-12-27T23:40:38.102Z,4.18
2023-12-27T23:43:05.427Z,4.16
2023-12-27T23:45:32.593Z,4.15
2023-12-27T23:48:00.690Z,4.20
2023-12-27T23:50:28.158Z,4.24
2023-12-27T23:52:55.242Z,4.20
2023-12-27T23:55:23.745Z,4.24
2023-12-27T23:57:50.915Z,4.15
